sensor_id;sensor_type;location;lat;lon;timestamp;temperature;humidity
15131;DHT22;7666;50.920;4.628;2022-12-08T00:00:37;5.00;99.90
15131;DHT22;7666;50.920;4.628;2022-12-08T00:03:23;5.00;99.90
15131;DHT22;7666;50.920;4.628;2022-12-08T00:06:33;5.00;99.90
15131;DHT22;7666;50.920;4.628;2022-12-08T00:09:39;5.00;99.90
15131;DHT22;7666;50.920;4.628;2022-12-08T00:12:26;5.00;99.90
15131;DHT22;7666;50.920;4.628;2022-12-08T00:15:12;5.00;99.90
15131;DHT22;7666;50.920;4.628;2022-12-08T00:17:58;5.00;99.90
15131;DHT22;7666;50.920;4.628;2022-12-08T00:20:44;5.00;99.90
15131;DHT22;7666;50.920;4.628;2022-12-08T00:23:30;5.00;99.90
15131;DHT22;7666;50.920;4.628;2022-12-08T00:26:16;5.00;99.90
15131;DHT22;7666;50.920;4.628;2022-12-08T00:29:02;5.00;99.90
15131;DHT22;7666;50.920;4.628;2022-12-08T00:31:49;4.90;99.90
15131;DHT22;7666;50.920;4.628;2022-12-08T00:34:35;4.90;99.90
15131;DHT22;7666;50.920;4.628;2022-12-08T00:37:21;4.90;99.90
15131;DHT22;7666;50.920;4.628;2022-12-08T00:40:07;4.90;99.90
15131;DHT22;7666;50.920;4.628;2022-12-08T00:42:53;4.90;99.90
15131;DHT22;7666;50.920;4.628;2022-12-08T00:45:40;4.90;99.90
15131;DHT22;7666;50.920;4.628;2022-12-08T00:48:26;4.90;99.90
15131;DHT22;7666;50.920;4.628;2022-12-08T00:51:12;4.90;99.90
15131;DHT22;7666;50.920;4.628;2022-12-08T00:53:57;4.90;99.90
15131;DHT22;7666;50.920;4.628;2022-12-08T00:56:44;4.80;99.90
15131;DHT22;7666;50.920;4.628;2022-12-08T00:59:30;4.80;99.90
15131;DHT22;7666;50.920;4.628;2022-12-08T01:02:15;4.80;99.90
15131;DHT22;7666;50.920;4.628;2022-12-08T01:05:02;4.80;99.90
15131;DHT22;7666;50.920;4.628;2022-12-08T01:07:48;4.80;99.90
15131;DHT22;7666;50.920;4.628;2022-12-08T01:10:35;4.80;99.90
15131;DHT22;7666;50.920;4.628;2022-12-08T01:13:21;4.80;99.90
15131;DHT22;7666;50.920;4.628;2022-12-08T01:16:08;4.80;99.90
15131;DHT22;7666;50.920;4.628;2022-12-08T01:18:55;4.80;99.90
15131;DHT22;7666;50.920;4.628;2022-12-08T01:21:43;4.70;99.90
15131;DHT22;7666;50.920;4.628;2022-12-08T01:24:29;4.80;99.90
15131;DHT22;7666;50.920;4.628;2022-12-08T01:27:15;4.70;99.90
15131;DHT22;7666;50.920;4.628;2022-12-08T01:30:01;4.70;99.90
15131;DHT22;7666;50.920;4.628;2022-12-08T01:32:49;4.60;99.90
15131;DHT22;7666;50.920;4.628;2022-12-08T01:35:35;4.60;99.90
15131;DHT22;7666;50.920;4.628;2022-12-08T01:38:21;4.60;99.90
15131;DHT22;7666;50.920;4.628;2022-12-08T01:41:09;4.50;99.90
15131;DHT22;7666;50.920;4.628;2022-12-08T01:46:53;4.40;99.90
15131;DHT22;7666;50.920;4.628;2022-12-08T01:49:39;4.30;99.90
15131;DHT22;7666;50.920;4.628;2022-12-08T01:52:30;4.30;99.90
15131;DHT22;7666;50.920;4.628;2022-12-08T01:55:46;4.30;99.90
15131;DHT22;7666;50.920;4.628;2022-12-08T01:58:42;4.20;99.90
15131;DHT22;7666;50.920;4.628;2022-12-08T02:01:30;4.20;99.90
15131;DHT22;7666;50.920;4.628;2022-12-08T02:04:16;4.20;99.90
15131;DHT22;7666;50.920;4.628;2022-12-08T02:07:03;4.20;99.90
15131;DHT22;7666;50.920;4.628;2022-12-08T02:09:50;4.30;99.90
15131;DHT22;7666;50.920;4.628;2022-12-08T02:12:37;4.20;99.90
15131;DHT22;7666;50.920;4.628;2022-12-08T02:18:59;4.20;99.90
15131;DHT22;7666;50.920;4.628;2022-12-08T02:24:46;4.10;99.90
15131;DHT22;7666;50.920;4.628;2022-12-08T02:45:47;3.90;99.90
15131;DHT22;7666;50.920;4.628;2022-12-08T02:48:36;3.90;99.90
15131;DHT22;7666;50.920;4.628;2022-12-08T02:51:22;3.90;99.90
15131;DHT22;7666;50.920;4.628;2022-12-08T02:54:08;3.90;99.90
15131;DHT22;7666;50.920;4.628;2022-12-08T03:00:10;3.80;99.90
15131;DHT22;7666;50.920;4.628;2022-12-08T03:09:33;3.80;99.90
15131;DHT22;7666;50.920;4.628;2022-12-08T03:12:47;3.80;99.90
15131;DHT22;7666;50.920;4.628;2022-12-08T03:15:35;3.80;99.90
15131;DHT22;7666;50.920;4.628;2022-12-08T03:18:25;3.70;99.90
15131;DHT22;7666;50.920;4.628;2022-12-08T03:21:15;3.70;99.90
15131;DHT22;7666;50.920;4.628;2022-12-08T03:24:06;3.70;99.90
15131;DHT22;7666;50.920;4.628;2022-12-08T03:26:57;3.70;99.90
15131;DHT22;7666;50.920;4.628;2022-12-08T03:29:45;3.60;99.90
15131;DHT22;7666;50.920;4.628;2022-12-08T03:35:29;3.60;99.90
15131;DHT22;7666;50.920;4.628;2022-12-08T03:38:16;3.60;99.90
15131;DHT22;7666;50.920;4.628;2022-12-08T03:41:03;3.70;99.90
15131;DHT22;7666;50.920;4.628;2022-12-08T03:44:04;3.70;99.90
15131;DHT22;7666;50.920;4.628;2022-12-08T03:46:50;3.70;99.90
15131;DHT22;7666;50.920;4.628;2022-12-08T03:49:36;3.80;99.90
15131;DHT22;7666;50.920;4.628;2022-12-08T03:52:22;3.80;99.90
15131;DHT22;7666;50.920;4.628;2022-12-08T03:55:09;3.80;99.90
15131;DHT22;7666;50.920;4.628;2022-12-08T03:57:55;3.90;99.90
15131;DHT22;7666;50.920;4.628;2022-12-08T04:00:41;3.90;99.90
15131;DHT22;7666;50.920;4.628;2022-12-08T04:03:27;4.00;99.90
15131;DHT22;7666;50.920;4.628;2022-12-08T04:06:13;4.00;99.90
15131;DHT22;7666;50.920;4.628;2022-12-08T04:08:59;4.00;99.90
15131;DHT22;7666;50.920;4.628;2022-12-08T04:11:45;4.10;99.90
15131;DHT22;7666;50.920;4.628;2022-12-08T04:14:31;4.00;99.90
15131;DHT22;7666;50.920;4.628;2022-12-08T04:17:17;4.10;99.90
15131;DHT22;7666;50.920;4.628;2022-12-08T04:20:03;4.00;99.90
15131;DHT22;7666;50.920;4.628;2022-12-08T04:22:49;4.00;99.90
15131;DHT22;7666;50.920;4.628;2022-12-08T04:25:35;4.10;99.90
15131;DHT22;7666;50.920;4.628;2022-12-08T04:28:21;4.00;99.90
15131;DHT22;7666;50.920;4.628;2022-12-08T04:31:08;4.10;99.90
15131;DHT22;7666;50.920;4.628;2022-12-08T04:33:54;4.10;99.90
15131;DHT22;7666;50.920;4.628;2022-12-08T04:36:40;4.10;99.90
15131;DHT22;7666;50.920;4.628;2022-12-08T04:39:25;4.10;99.90
15131;DHT22;7666;50.920;4.628;2022-12-08T04:42:11;4.10;99.90
15131;DHT22;7666;50.920;4.628;2022-12-08T04:44:57;4.10;99.90
15131;DHT22;7666;50.920;4.628;2022-12-08T04:47:44;4.10;99.90
15131;DHT22;7666;50.920;4.628;2022-12-08T04:50:30;4.10;99.90
15131;DHT22;7666;50.920;4.628;2022-12-08T04:53:16;4.10;99.90
15131;DHT22;7666;50.920;4.628;2022-12-08T04:56:02;4.10;99.90
15131;DHT22;7666;50.920;4.628;2022-12-08T04:58:48;4.00;99.90
15131;DHT22;7666;50.920;4.628;2022-12-08T05:01:34;4.10;99.90
15131;DHT22;7666;50.920;4.628;2022-12-08T05:04:20;4.10;99.90
15131;DHT22;7666;50.920;4.628;2022-12-08T05:07:06;4.00;99.90
15131;DHT22;7666;50.920;4.628;2022-12-08T05:09:52;4.00;99.90
15131;DHT22;7666;50.920;4.628;2022-12-08T05:12:38;4.00;99.90
15131;DHT22;7666;50.920;4.628;2022-12-08T05:15:24;4.00;99.90
15131;DHT22;7666;50.920;4.628;2022-12-08T05:18:10;4.00;99.90
15131;DHT22;7666;50.920;4.628;2022-12-08T05:20:56;4.10;99.90
15131;DHT22;7666;50.920;4.628;2022-12-08T05:23:42;4.00;99.90
15131;DHT22;7666;50.920;4.628;2022-12-08T05:26:28;4.00;99.90
15131;DHT22;7666;50.920;4.628;2022-12-08T05:29:14;4.00;99.90
15131;DHT22;7666;50.920;4.628;2022-12-08T05:32:00;4.00;99.90
15131;DHT22;7666;50.920;4.628;2022-12-08T05:34:46;4.00;99.90
15131;DHT22;7666;50.920;4.628;2022-12-08T05:37:32;4.00;99.90
15131;DHT22;7666;50.920;4.628;2022-12-08T05:40:18;4.00;99.90
15131;DHT22;7666;50.920;4.628;2022-12-08T05:43:04;3.90;99.90
15131;DHT22;7666;50.920;4.628;2022-12-08T05:45:50;4.00;99.90
15131;DHT22;7666;50.920;4.628;2022-12-08T05:48:36;4.00;99.90
15131;DHT22;7666;50.920;4.628;2022-12-08T05:51:23;4.00;99.90
15131;DHT22;7666;50.920;4.628;2022-12-08T05:54:09;3.90;99.90
15131;DHT22;7666;50.920;4.628;2022-12-08T05:56:55;3.90;99.90
15131;DHT22;7666;50.920;4.628;2022-12-08T05:59:41;3.90;99.90
15131;DHT22;7666;50.920;4.628;2022-12-08T06:02:27;3.90;99.90
15131;DHT22;7666;50.920;4.628;2022-12-08T06:05:13;3.90;99.90
15131;DHT22;7666;50.920;4.628;2022-12-08T06:07:59;3.90;99.90
15131;DHT22;7666;50.920;4.628;2022-12-08T06:10:45;3.90;99.90
15131;DHT22;7666;50.920;4.628;2022-12-08T06:13:31;3.90;99.90
15131;DHT22;7666;50.920;4.628;2022-12-08T06:16:18;3.90;99.90
15131;DHT22;7666;50.920;4.628;2022-12-08T06:19:04;3.90;99.90
15131;DHT22;7666;50.920;4.628;2022-12-08T06:21:50;3.90;99.90
15131;DHT22;7666;50.920;4.628;2022-12-08T06:24:36;3.90;99.90
15131;DHT22;7666;50.920;4.628;2022-12-08T06:27:22;3.90;99.90
15131;DHT22;7666;50.920;4.628;2022-12-08T06:30:08;3.90;99.90
15131;DHT22;7666;50.920;4.628;2022-12-08T06:32:54;3.90;99.90
15131;DHT22;7666;50.920;4.628;2022-12-08T06:35:40;3.90;99.90
15131;DHT22;7666;50.920;4.628;2022-12-08T06:38:26;3.90;99.90
15131;DHT22;7666;50.920;4.628;2022-12-08T06:41:14;3.90;99.90
15131;DHT22;7666;50.920;4.628;2022-12-08T06:44:00;3.90;99.90
15131;DHT22;7666;50.920;4.628;2022-12-08T06:46:46;3.90;99.90
15131;DHT22;7666;50.920;4.628;2022-12-08T06:49:32;3.90;99.90
15131;DHT22;7666;50.920;4.628;2022-12-08T06:52:18;3.90;99.90
15131;DHT22;7666;50.920;4.628;2022-12-08T06:55:04;4.20;99.90
15131;DHT22;7666;50.920;4.628;2022-12-08T06:57:52;4.40;99.90
15131;DHT22;7666;50.920;4.628;2022-12-08T07:00:39;4.30;99.90
15131;DHT22;7666;50.920;4.628;2022-12-08T07:03:25;4.10;99.90
15131;DHT22;7666;50.920;4.628;2022-12-08T07:06:15;4.10;99.90
15131;DHT22;7666;50.920;4.628;2022-12-08T07:09:03;4.00;99.90
15131;DHT22;7666;50.920;4.628;2022-12-08T07:11:49;3.90;99.90
15131;DHT22;7666;50.920;4.628;2022-12-08T07:14:35;3.90;99.90
15131;DHT22;7666;50.920;4.628;2022-12-08T07:17:21;3.90;99.90
15131;DHT22;7666;50.920;4.628;2022-12-08T07:20:07;3.80;99.90
15131;DHT22;7666;50.920;4.628;2022-12-08T07:22:53;3.80;99.90
15131;DHT22;7666;50.920;4.628;2022-12-08T07:25:39;3.80;99.90
15131;DHT22;7666;50.920;4.628;2022-12-08T07:28:25;3.80;99.90
15131;DHT22;7666;50.920;4.628;2022-12-08T07:31:19;3.80;99.90
15131;DHT22;7666;50.920;4.628;2022-12-08T07:34:06;3.80;99.90
15131;DHT22;7666;50.920;4.628;2022-12-08T07:36:52;3.80;99.90
15131;DHT22;7666;50.920;4.628;2022-12-08T07:39:38;3.80;99.90
15131;DHT22;7666;50.920;4.628;2022-12-08T07:42:24;3.90;99.90
15131;DHT22;7666;50.920;4.628;2022-12-08T07:45:10;3.90;99.90
15131;DHT22;7666;50.920;4.628;2022-12-08T07:47:56;3.90;99.90
15131;DHT22;7666;50.920;4.628;2022-12-08T07:50:42;3.90;99.90
15131;DHT22;7666;50.920;4.628;2022-12-08T07:53:28;4.00;99.90
15131;DHT22;7666;50.920;4.628;2022-12-08T07:56:14;4.00;99.90
15131;DHT22;7666;50.920;4.628;2022-12-08T07:59:00;4.00;99.90
15131;DHT22;7666;50.920;4.628;2022-12-08T08:01:47;3.90;99.90
15131;DHT22;7666;50.920;4.628;2022-12-08T08:04:33;4.00;99.90
15131;DHT22;7666;50.920;4.628;2022-12-08T08:07:19;4.00;99.90
15131;DHT22;7666;50.920;4.628;2022-12-08T08:10:05;4.00;99.90
15131;DHT22;7666;50.920;4.628;2022-12-08T08:12:51;4.00;99.90
15131;DHT22;7666;50.920;4.628;2022-12-08T08:15:38;4.00;99.90
15131;DHT22;7666;50.920;4.628;2022-12-08T08:18:24;4.10;99.90
15131;DHT22;7666;50.920;4.628;2022-12-08T08:21:10;4.10;99.90
15131;DHT22;7666;50.920;4.628;2022-12-08T08:23:56;4.20;99.90
15131;DHT22;7666;50.920;4.628;2022-12-08T08:26:42;4.20;99.90
15131;DHT22;7666;50.920;4.628;2022-12-08T08:29:28;4.20;99.90
15131;DHT22;7666;50.920;4.628;2022-12-08T08:32:14;4.20;99.90
15131;DHT22;7666;50.920;4.628;2022-12-08T08:35:01;4.10;99.90
15131;DHT22;7666;50.920;4.628;2022-12-08T08:37:47;4.20;99.90
15131;DHT22;7666;50.920;4.628;2022-12-08T08:40:33;4.20;99.90
15131;DHT22;7666;50.920;4.628;2022-12-08T08:43:19;4.20;99.90
15131;DHT22;7666;50.920;4.628;2022-12-08T08:46:14;4.20;99.90
15131;DHT22;7666;50.920;4.628;2022-12-08T08:49:00;4.20;99.90
15131;DHT22;7666;50.920;4.628;2022-12-08T08:51:46;4.20;99.90
15131;DHT22;7666;50.920;4.628;2022-12-08T08:54:32;4.20;99.90
15131;DHT22;7666;50.920;4.628;2022-12-08T08:57:18;4.20;99.90
15131;DHT22;7666;50.920;4.628;2022-12-08T09:00:05;4.20;99.90
15131;DHT22;7666;50.920;4.628;2022-12-08T09:02:51;4.20;99.90
15131;DHT22;7666;50.920;4.628;2022-12-08T09:05:37;4.20;99.90
15131;DHT22;7666;50.920;4.628;2022-12-08T09:08:25;4.20;99.90
15131;DHT22;7666;50.920;4.628;2022-12-08T09:11:12;4.20;99.90
15131;DHT22;7666;50.920;4.628;2022-12-08T09:13:58;4.20;99.90
15131;DHT22;7666;50.920;4.628;2022-12-08T09:16:44;4.20;99.90
15131;DHT22;7666;50.920;4.628;2022-12-08T09:19:30;4.30;99.90
15131;DHT22;7666;50.920;4.628;2022-12-08T09:22:16;4.30;99.90
15131;DHT22;7666;50.920;4.628;2022-12-08T09:25:02;4.30;99.90
15131;DHT22;7666;50.920;4.628;2022-12-08T09:27:48;4.30;99.90
15131;DHT22;7666;50.920;4.628;2022-12-08T09:30:34;4.30;99.90
15131;DHT22;7666;50.920;4.628;2022-12-08T09:33:20;4.40;99.90
15131;DHT22;7666;50.920;4.628;2022-12-08T09:36:07;4.40;99.90
15131;DHT22;7666;50.920;4.628;2022-12-08T09:38:53;4.40;99.90
15131;DHT22;7666;50.920;4.628;2022-12-08T09:41:48;4.40;99.90
15131;DHT22;7666;50.920;4.628;2022-12-08T09:47:39;4.40;99.90
15131;DHT22;7666;50.920;4.628;2022-12-08T09:50:39;4.40;99.90
15131;DHT22;7666;50.920;4.628;2022-12-08T09:53:38;4.40;99.90
15131;DHT22;7666;50.920;4.628;2022-12-08T09:56:30;4.40;99.90
15131;DHT22;7666;50.920;4.628;2022-12-08T09:59:32;4.40;99.90
15131;DHT22;7666;50.920;4.628;2022-12-08T10:02:21;4.40;99.90
15131;DHT22;7666;50.920;4.628;2022-12-08T10:05:12;4.40;99.90
15131;DHT22;7666;50.920;4.628;2022-12-08T10:08:18;4.30;99.90
15131;DHT22;7666;50.920;4.628;2022-12-08T10:11:12;4.40;99.90
15131;DHT22;7666;50.920;4.628;2022-12-08T10:14:20;4.50;99.90
15131;DHT22;7666;50.920;4.628;2022-12-08T10:17:21;4.50;99.90
15131;DHT22;7666;50.920;4.628;2022-12-08T10:20:18;4.50;99.90
15131;DHT22;7666;50.920;4.628;2022-12-08T10:26:11;4.60;99.90
15131;DHT22;7666;50.920;4.628;2022-12-08T10:29:00;4.60;99.90
15131;DHT22;7666;50.920;4.628;2022-12-08T10:31:47;4.60;99.90
15131;DHT22;7666;50.920;4.628;2022-12-08T10:34:33;4.70;99.90
15131;DHT22;7666;50.920;4.628;2022-12-08T10:37:19;4.60;99.90
15131;DHT22;7666;50.920;4.628;2022-12-08T10:40:10;4.70;99.90
15131;DHT22;7666;50.920;4.628;2022-12-08T10:42:58;4.70;99.90
15131;DHT22;7666;50.920;4.628;2022-12-08T10:45:44;4.70;99.90
15131;DHT22;7666;50.920;4.628;2022-12-08T10:48:30;4.70;99.90
15131;DHT22;7666;50.920;4.628;2022-12-08T10:51:30;4.70;99.90
15131;DHT22;7666;50.920;4.628;2022-12-08T10:54:33;4.60;99.90
15131;DHT22;7666;50.920;4.628;2022-12-08T10:57:22;4.60;99.90
15131;DHT22;7666;50.920;4.628;2022-12-08T11:00:16;4.60;99.90
15131;DHT22;7666;50.920;4.628;2022-12-08T11:03:04;4.50;99.90
15131;DHT22;7666;50.920;4.628;2022-12-08T11:05:54;4.60;99.90
15131;DHT22;7666;50.920;4.628;2022-12-08T11:08:47;4.50;99.90
15131;DHT22;7666;50.920;4.628;2022-12-08T11:11:43;4.60;99.90
15131;DHT22;7666;50.920;4.628;2022-12-08T11:14:44;4.60;99.90
15131;DHT22;7666;50.920;4.628;2022-12-08T11:17:37;4.90;99.90
15131;DHT22;7666;50.920;4.628;2022-12-08T11:20:26;5.30;99.90
15131;DHT22;7666;50.920;4.628;2022-12-08T11:23:20;5.60;99.90
15131;DHT22;7666;50.920;4.628;2022-12-08T11:26:31;5.90;99.90
15131;DHT22;7666;50.920;4.628;2022-12-08T11:29:17;6.20;99.90
15131;DHT22;7666;50.920;4.628;2022-12-08T11:32:06;6.50;99.90
15131;DHT22;7666;50.920;4.628;2022-12-08T11:35:04;6.70;99.90
15131;DHT22;7666;50.920;4.628;2022-12-08T11:37:52;6.90;99.90
15131;DHT22;7666;50.920;4.628;2022-12-08T11:40:42;7.00;99.90
15131;DHT22;7666;50.920;4.628;2022-12-08T11:46:23;7.10;99.90
15131;DHT22;7666;50.920;4.628;2022-12-08T11:49:12;7.10;99.90
15131;DHT22;7666;50.920;4.628;2022-12-08T11:52:13;6.90;99.90
15131;DHT22;7666;50.920;4.628;2022-12-08T11:55:32;6.70;99.90
15131;DHT22;7666;50.920;4.628;2022-12-08T12:01:28;6.90;99.90
15131;DHT22;7666;50.920;4.628;2022-12-08T12:16:36;7.60;99.90
15131;DHT22;7666;50.920;4.628;2022-12-08T12:19:27;7.80;99.90
15131;DHT22;7666;50.920;4.628;2022-12-08T12:22:17;8.00;99.90
15131;DHT22;7666;50.920;4.628;2022-12-08T12:25:05;8.10;99.90
15131;DHT22;7666;50.920;4.628;2022-12-08T12:27:52;8.10;99.90
15131;DHT22;7666;50.920;4.628;2022-12-08T12:31:00;7.80;99.90
15131;DHT22;7666;50.920;4.628;2022-12-08T12:33:48;7.40;99.90
15131;DHT22;7666;50.920;4.628;2022-12-08T12:36:50;7.30;99.90
15131;DHT22;7666;50.920;4.628;2022-12-08T12:39:57;7.20;99.90
15131;DHT22;7666;50.920;4.628;2022-12-08T12:45:39;7.00;99.90
15131;DHT22;7666;50.920;4.628;2022-12-08T12:48:28;7.00;99.90
15131;DHT22;7666;50.920;4.628;2022-12-08T12:54:26;6.70;99.90
15131;DHT22;7666;50.920;4.628;2022-12-08T13:02:44;6.60;99.90
15131;DHT22;7666;50.920;4.628;2022-12-08T13:05:34;6.60;99.90
15131;DHT22;7666;50.920;4.628;2022-12-08T13:08:30;6.60;99.90
15131;DHT22;7666;50.920;4.628;2022-12-08T13:11:17;6.60;99.90
15131;DHT22;7666;50.920;4.628;2022-12-08T13:14:04;6.70;99.90
15131;DHT22;7666;50.920;4.628;2022-12-08T13:16:53;6.60;99.90
15131;DHT22;7666;50.920;4.628;2022-12-08T13:19:39;6.60;99.90
15131;DHT22;7666;50.920;4.628;2022-12-08T13:22:46;6.60;99.90
15131;DHT22;7666;50.920;4.628;2022-12-08T13:28:28;6.40;99.90
15131;DHT22;7666;50.920;4.628;2022-12-08T13:37:24;6.20;99.90
15131;DHT22;7666;50.920;4.628;2022-12-08T13:40:23;6.20;99.90
15131;DHT22;7666;50.920;4.628;2022-12-08T13:46:16;6.30;99.90
15131;DHT22;7666;50.920;4.628;2022-12-08T13:49:08;6.30;99.90
15131;DHT22;7666;50.920;4.628;2022-12-08T13:51:56;6.30;99.90
15131;DHT22;7666;50.920;4.628;2022-12-08T13:54:42;6.20;99.90
15131;DHT22;7666;50.920;4.628;2022-12-08T13:57:31;6.20;99.90
15131;DHT22;7666;50.920;4.628;2022-12-08T14:00:19;6.20;99.90
15131;DHT22;7666;50.920;4.628;2022-12-08T14:03:10;6.10;99.90
15131;DHT22;7666;50.920;4.628;2022-12-08T14:05:57;6.10;99.90
15131;DHT22;7666;50.920;4.628;2022-12-08T14:08:47;5.80;99.90
15131;DHT22;7666;50.920;4.628;2022-12-08T14:11:39;5.30;99.90
15131;DHT22;7666;50.920;4.628;2022-12-08T14:14:32;5.00;99.90
15131;DHT22;7666;50.920;4.628;2022-12-08T14:17:20;4.80;99.90
15131;DHT22;7666;50.920;4.628;2022-12-08T14:20:31;4.70;99.90
15131;DHT22;7666;50.920;4.628;2022-12-08T14:23:17;4.60;99.90
15131;DHT22;7666;50.920;4.628;2022-12-08T14:26:04;4.50;99.90
15131;DHT22;7666;50.920;4.628;2022-12-08T14:28:51;4.40;99.90
15131;DHT22;7666;50.920;4.628;2022-12-08T14:31:37;4.40;99.90
15131;DHT22;7666;50.920;4.628;2022-12-08T14:34:23;4.40;99.90
15131;DHT22;7666;50.920;4.628;2022-12-08T14:37:12;4.40;99.90
15131;DHT22;7666;50.920;4.628;2022-12-08T14:46:19;4.30;99.90
15131;DHT22;7666;50.920;4.628;2022-12-08T14:49:32;4.40;99.90
15131;DHT22;7666;50.920;4.628;2022-12-08T14:52:18;4.50;99.90
15131;DHT22;7666;50.920;4.628;2022-12-08T14:55:06;4.50;99.90
15131;DHT22;7666;50.920;4.628;2022-12-08T14:57:52;4.50;99.90
15131;DHT22;7666;50.920;4.628;2022-12-08T15:00:45;4.60;99.90
15131;DHT22;7666;50.920;4.628;2022-12-08T15:03:31;4.60;99.90
15131;DHT22;7666;50.920;4.628;2022-12-08T15:06:19;4.70;99.90
15131;DHT22;7666;50.920;4.628;2022-12-08T15:09:16;4.70;99.90
15131;DHT22;7666;50.920;4.628;2022-12-08T15:12:13;4.70;99.90
15131;DHT22;7666;50.920;4.628;2022-12-08T15:18:17;4.80;99.90
15131;DHT22;7666;50.920;4.628;2022-12-08T15:21:09;4.80;99.90
15131;DHT22;7666;50.920;4.628;2022-12-08T15:23:57;4.80;99.90
15131;DHT22;7666;50.920;4.628;2022-12-08T15:26:45;4.80;99.90
15131;DHT22;7666;50.920;4.628;2022-12-08T15:29:32;4.80;99.90
15131;DHT22;7666;50.920;4.628;2022-12-08T15:32:21;4.80;99.90
15131;DHT22;7666;50.920;4.628;2022-12-08T15:35:11;4.80;99.90
15131;DHT22;7666;50.920;4.628;2022-12-08T15:37:57;4.80;99.90
15131;DHT22;7666;50.920;4.628;2022-12-08T15:40:43;4.80;99.90
15131;DHT22;7666;50.920;4.628;2022-12-08T15:43:30;4.70;99.90
15131;DHT22;7666;50.920;4.628;2022-12-08T15:46:16;4.70;99.90
15131;DHT22;7666;50.920;4.628;2022-12-08T15:49:02;4.70;99.90
15131;DHT22;7666;50.920;4.628;2022-12-08T15:51:49;4.70;99.90
15131;DHT22;7666;50.920;4.628;2022-12-08T15:54:35;4.60;99.90
15131;DHT22;7666;50.920;4.628;2022-12-08T15:57:29;4.70;99.90
15131;DHT22;7666;50.920;4.628;2022-12-08T16:00:26;4.70;99.90
15131;DHT22;7666;50.920;4.628;2022-12-08T16:03:29;4.70;99.90
15131;DHT22;7666;50.920;4.628;2022-12-08T16:06:18;4.70;99.90
15131;DHT22;7666;50.920;4.628;2022-12-08T16:09:05;4.70;99.90
15131;DHT22;7666;50.920;4.628;2022-12-08T16:11:51;4.70;99.90
15131;DHT22;7666;50.920;4.628;2022-12-08T16:14:56;4.60;99.90
15131;DHT22;7666;50.920;4.628;2022-12-08T16:17:42;4.70;99.90
15131;DHT22;7666;50.920;4.628;2022-12-08T16:20:28;4.60;99.90
15131;DHT22;7666;50.920;4.628;2022-12-08T16:23:14;4.60;99.90
15131;DHT22;7666;50.920;4.628;2022-12-08T16:26:00;4.60;99.90
15131;DHT22;7666;50.920;4.628;2022-12-08T16:28:46;4.60;99.90
15131;DHT22;7666;50.920;4.628;2022-12-08T16:31:32;4.60;99.90
15131;DHT22;7666;50.920;4.628;2022-12-08T16:34:19;4.60;99.90
15131;DHT22;7666;50.920;4.628;2022-12-08T16:37:05;4.60;99.90
15131;DHT22;7666;50.920;4.628;2022-12-08T16:39:52;4.60;99.90
15131;DHT22;7666;50.920;4.628;2022-12-08T16:42:39;4.60;99.90
15131;DHT22;7666;50.920;4.628;2022-12-08T16:45:27;4.50;99.90
15131;DHT22;7666;50.920;4.628;2022-12-08T16:48:13;4.50;99.90
15131;DHT22;7666;50.920;4.628;2022-12-08T16:51:00;4.50;99.90
15131;DHT22;7666;50.920;4.628;2022-12-08T16:53:49;4.40;99.90
15131;DHT22;7666;50.920;4.628;2022-12-08T16:56:35;4.40;99.90
15131;DHT22;7666;50.920;4.628;2022-12-08T16:59:21;4.40;99.90
15131;DHT22;7666;50.920;4.628;2022-12-08T17:02:07;4.30;99.90
15131;DHT22;7666;50.920;4.628;2022-12-08T17:04:54;4.30;99.90
15131;DHT22;7666;50.920;4.628;2022-12-08T17:07:44;4.30;99.90
15131;DHT22;7666;50.920;4.628;2022-12-08T17:10:31;4.30;99.90
15131;DHT22;7666;50.920;4.628;2022-12-08T17:13:19;4.20;99.90
15131;DHT22;7666;50.920;4.628;2022-12-08T17:16:11;4.20;99.90
15131;DHT22;7666;50.920;4.628;2022-12-08T17:18:58;4.20;99.90
15131;DHT22;7666;50.920;4.628;2022-12-08T17:21:44;4.10;99.90
15131;DHT22;7666;50.920;4.628;2022-12-08T17:24:30;4.30;99.90
15131;DHT22;7666;50.920;4.628;2022-12-08T17:27:16;4.10;99.90
15131;DHT22;7666;50.920;4.628;2022-12-08T17:30:03;4.10;99.90
15131;DHT22;7666;50.920;4.628;2022-12-08T17:32:50;4.10;99.90
15131;DHT22;7666;50.920;4.628;2022-12-08T17:35:37;4.10;99.90
15131;DHT22;7666;50.920;4.628;2022-12-08T17:38:23;4.00;99.90
15131;DHT22;7666;50.920;4.628;2022-12-08T17:41:10;4.00;99.90
15131;DHT22;7666;50.920;4.628;2022-12-08T17:43:56;4.00;99.90
15131;DHT22;7666;50.920;4.628;2022-12-08T17:46:42;3.90;99.90
15131;DHT22;7666;50.920;4.628;2022-12-08T17:49:29;3.90;99.90
15131;DHT22;7666;50.920;4.628;2022-12-08T17:52:16;3.90;99.90
15131;DHT22;7666;50.920;4.628;2022-12-08T17:55:02;3.90;99.90
15131;DHT22;7666;50.920;4.628;2022-12-08T17:57:48;3.90;99.90
15131;DHT22;7666;50.920;4.628;2022-12-08T18:00:34;3.90;99.90
15131;DHT22;7666;50.920;4.628;2022-12-08T18:03:20;3.90;99.90
15131;DHT22;7666;50.920;4.628;2022-12-08T18:06:08;3.80;99.90
15131;DHT22;7666;50.920;4.628;2022-12-08T18:08:57;3.80;99.90
15131;DHT22;7666;50.920;4.628;2022-12-08T18:11:44;3.80;99.90
15131;DHT22;7666;50.920;4.628;2022-12-08T18:14:31;3.60;99.90
15131;DHT22;7666;50.920;4.628;2022-12-08T18:17:16;3.60;99.90
15131;DHT22;7666;50.920;4.628;2022-12-08T18:20:03;3.50;99.90
15131;DHT22;7666;50.920;4.628;2022-12-08T18:22:50;3.50;99.90
15131;DHT22;7666;50.920;4.628;2022-12-08T18:25:35;3.50;99.90
15131;DHT22;7666;50.920;4.628;2022-12-08T18:28:21;3.40;99.90
15131;DHT22;7666;50.920;4.628;2022-12-08T18:31:11;3.40;99.90
15131;DHT22;7666;50.920;4.628;2022-12-08T18:33:57;3.30;99.90
15131;DHT22;7666;50.920;4.628;2022-12-08T18:36:43;3.20;99.90
15131;DHT22;7666;50.920;4.628;2022-12-08T18:39:31;3.20;99.90
15131;DHT22;7666;50.920;4.628;2022-12-08T18:42:17;3.20;99.90
15131;DHT22;7666;50.920;4.628;2022-12-08T18:45:09;3.20;99.90
15131;DHT22;7666;50.920;4.628;2022-12-08T18:47:55;3.10;99.90
15131;DHT22;7666;50.920;4.628;2022-12-08T18:50:41;3.10;99.90
15131;DHT22;7666;50.920;4.628;2022-12-08T18:53:29;3.10;99.90
15131;DHT22;7666;50.920;4.628;2022-12-08T18:56:25;3.10;99.90
15131;DHT22;7666;50.920;4.628;2022-12-08T18:59:11;3.10;99.90
15131;DHT22;7666;50.920;4.628;2022-12-08T19:01:58;3.10;99.90
15131;DHT22;7666;50.920;4.628;2022-12-08T19:04:44;3.10;99.90
15131;DHT22;7666;50.920;4.628;2022-12-08T19:07:30;3.10;99.90
15131;DHT22;7666;50.920;4.628;2022-12-08T19:10:16;3.10;99.90
15131;DHT22;7666;50.920;4.628;2022-12-08T19:13:04;3.00;99.90
15131;DHT22;7666;50.920;4.628;2022-12-08T19:15:50;3.00;99.90
15131;DHT22;7666;50.920;4.628;2022-12-08T19:18:36;3.00;99.90
15131;DHT22;7666;50.920;4.628;2022-12-08T19:21:24;2.90;99.90
15131;DHT22;7666;50.920;4.628;2022-12-08T19:24:10;2.90;99.90
15131;DHT22;7666;50.920;4.628;2022-12-08T19:26:56;2.90;99.90
15131;DHT22;7666;50.920;4.628;2022-12-08T19:29:42;2.90;99.90
15131;DHT22;7666;50.920;4.628;2022-12-08T19:32:28;2.80;99.90
15131;DHT22;7666;50.920;4.628;2022-12-08T19:35:15;2.80;99.90
15131;DHT22;7666;50.920;4.628;2022-12-08T19:38:01;2.80;99.90
15131;DHT22;7666;50.920;4.628;2022-12-08T19:40:47;2.70;99.90
15131;DHT22;7666;50.920;4.628;2022-12-08T19:43:51;2.70;99.90
15131;DHT22;7666;50.920;4.628;2022-12-08T19:46:56;2.70;99.90
15131;DHT22;7666;50.920;4.628;2022-12-08T19:49:42;2.70;99.90
15131;DHT22;7666;50.920;4.628;2022-12-08T19:52:28;2.70;99.90
15131;DHT22;7666;50.920;4.628;2022-12-08T19:55:14;2.80;99.90
15131;DHT22;7666;50.920;4.628;2022-12-08T19:58:00;2.80;99.90